Time;durP1;ratioP1;P1;durP2;ratioP2;P2;SDS_P1;SDS_P2;PMS_P1;PMS_P2;Temp;Humidity;BMP_temperature;BMP_pressure;BME280_temperature;BME280_humidity;BME280_pressure;Samples;Min_cycle;Max_cycle;Signal;HPM_P1;HPM_P2
2024/03/30 00:00:07;;;;;;;3.17;2.10;;;;;;;8.80;100.00;99929.81;6119082;23;20017;-74
2024/03/30 00:02:37;;;;;;;3.20;2.15;;;;;;;8.78;100.00;99929.28;6144339;23;20137;-74
2024/03/30 00:05:04;;;;;;;2.83;2.30;;;;;;;8.77;100.00;99935.72;6145412;23;20010;-73
2024/03/30 00:07:29;;;;;;;3.20;2.42;;;;;;;8.78;100.00;99937.31;6143149;23;20024;-74
2024/03/30 00:09:55;;;;;;;2.67;2.25;;;;;;;8.78;100.00;99931.97;6118041;23;20013;-75
2024/03/30 00:12:21;;;;;;;2.30;1.90;;;;;;;8.79;100.00;99935.44;6093302;23;20120;-74
2024/03/30 00:14:46;;;;;;;3.50;2.42;;;;;;;8.78;100.00;99929.28;6143479;23;20044;-75
2024/03/30 00:17:12;;;;;;;3.00;2.33;;;;;;;8.77;100.00;99932.25;6143345;23;20091;-74
2024/03/30 00:19:38;;;;;;;3.55;2.42;;;;;;;8.76;100.00;99926.13;6118073;23;20021;-75
2024/03/30 00:22:05;;;;;;;3.00;2.22;;;;;;;8.75;100.00;99928.00;6093653;23;20018;-73
2024/03/30 00:24:31;;;;;;;3.40;2.13;;;;;;;8.77;100.00;99932.25;6143638;23;20017;-73
2024/03/30 00:26:57;;;;;;;3.15;2.05;;;;;;;8.76;100.00;99918.09;6117395;23;20408;-73
2024/03/30 00:29:23;;;;;;;3.00;2.53;;;;;;;8.77;100.00;99914.34;6143485;23;20455;-73
2024/03/30 00:31:48;;;;;;;3.15;2.40;;;;;;;8.75;100.00;99908.50;6116530;23;20712;-73
2024/03/30 00:34:14;;;;;;;4.57;3.20;;;;;;;8.73;100.00;99895.41;6091757;23;20084;-71
2024/03/30 00:36:40;;;;;;;3.00;2.70;;;;;;;8.72;100.00;99901.84;6117599;23;20072;-74
2024/03/30 00:39:11;;;;;;;3.40;2.72;;;;;;;8.73;100.00;99907.97;6093251;23;20017;-74
2024/03/30 00:41:38;;;;;;;3.80;2.60;;;;;;;8.73;100.00;99913.31;6117565;23;20018;-74
2024/03/30 00:44:03;;;;;;;;;;;;;;;8.71;100.00;99918.13;6143462;23;20033;-73
2024/03/30 00:46:29;;;;;;;5.03;2.80;;;;;;;8.67;100.00;99906.41;6117691;23;19912;-75
2024/03/30 00:48:55;;;;;;;3.80;2.53;;;;;;;8.65;100.00;99903.22;6091261;23;20108;-75
2024/03/30 00:51:20;;;;;;;4.05;2.75;;;;;;;8.62;100.00;99914.47;6093304;23;20017;-76
2024/03/30 00:53:46;;;;;;;5.18;3.42;;;;;;;8.59;100.00;99917.66;6116537;23;20021;-73
2024/03/30 00:56:12;;;;;;;3.35;2.40;;;;;;;8.59;100.00;99915.78;6144122;23;20013;-76
2024/03/30 00:58:38;;;;;;;4.60;3.35;;;;;;;8.57;100.00;99928.63;6116547;23;20020;-77
2024/03/30 01:01:04;;;;;;;3.80;2.47;;;;;;;8.57;100.00;99930.50;6117973;23;20392;-75
2024/03/30 01:03:30;;;;;;;3.25;2.45;;;;;;;8.57;100.00;99917.16;6093291;23;20024;-74
2024/03/30 01:05:56;;;;;;;3.63;2.22;;;;;;;8.56;100.00;99915.56;6092542;23;20376;-76
2024/03/30 01:08:22;;;;;;;4.18;2.40;;;;;;;8.55;100.00;99913.97;6117041;23;20484;-73
2024/03/30 01:10:56;;;;;;;3.72;2.92;;;;;;;8.55;100.00;99916.66;6116335;23;20018;-77
2024/03/30 01:13:21;;;;;;;3.22;2.92;;;;;;;8.55;100.00;99929.97;6116642;23;20018;-73
2024/03/30 01:15:47;;;;;;;3.38;2.80;;;;;;;8.54;100.00;99939.06;6116717;23;20016;-76
2024/03/30 01:18:13;;;;;;;6.10;2.60;;;;;;;8.54;100.00;99949.75;6115849;23;20809;-73
2024/03/30 01:20:39;;;;;;;4.00;2.90;;;;;;;8.53;100.00;99938.25;6115700;23;20017;-75
2024/03/30 01:23:05;;;;;;;3.85;2.60;;;;;;;8.54;100.00;99949.75;6141868;23;20421;-74
2024/03/30 01:25:31;;;;;;;3.42;2.70;;;;;;;8.51;100.00;99944.94;6092337;23;20028;-76
2024/03/30 01:27:59;;;;;;;4.05;2.67;;;;;;;8.53;100.00;99937.44;6090636;23;20444;-77
2024/03/30 01:30:25;;;;;;;3.42;2.58;;;;;;;8.53;100.00;99927.56;6092605;23;20024;-76
2024/03/30 01:32:51;;;;;;;4.40;2.85;;;;;;;8.55;100.00;99927.31;6089684;23;20474;-75
2024/03/30 01:35:17;;;;;;;4.68;3.17;;;;;;;8.55;100.00;99922.78;6117383;23;20017;-76
2024/03/30 01:37:43;;;;;;;3.45;2.70;;;;;;;8.56;100.00;99915.56;6115288;23;20018;-76
2024/03/30 01:40:09;;;;;;;3.65;2.85;;;;;;;8.55;100.00;99919.31;6117408;23;20017;-76
2024/03/30 01:42:36;;;;;;;4.43;2.60;;;;;;;8.53;100.00;99921.44;6143353;23;20017;-77
2024/03/30 01:45:03;;;;;;;4.22;2.70;;;;;;;8.54;100.00;99923.84;6117917;23;20025;-76
2024/03/30 01:47:31;;;;;;;4.03;2.75;;;;;;;8.54;100.00;99931.84;6117370;23;20013;-76
2024/03/30 01:50:00;;;;;;;5.13;3.20;;;;;;;8.56;100.00;99942.25;6142032;23;20030;-77
2024/03/30 01:52:29;;;;;;;3.35;2.65;;;;;;;8.56;100.00;99942.25;6141761;23;20064;-74
2024/03/30 01:54:56;;;;;;;4.28;2.80;;;;;;;8.56;100.00;99943.03;6142408;23;20017;-75
2024/03/30 01:57:24;;;;;;;3.15;2.63;;;;;;;8.57;100.00;99949.19;6091155;23;20017;-75
2024/03/30 01:59:50;;;;;;;3.65;3.28;;;;;;;8.56;100.00;99945.72;6091781;23;20022;-75
2024/03/30 02:02:16;;;;;;;4.80;3.53;;;;;;;8.58;100.00;99950.78;6141350;23;20014;-74
2024/03/30 02:04:42;;;;;;;4.90;3.35;;;;;;;8.58;100.00;99945.44;6115901;23;20044;-75
2024/03/30 02:07:09;;;;;;;4.10;3.20;;;;;;;8.60;100.00;99943.28;6116449;23;20013;-76
2024/03/30 02:09:36;;;;;;;3.40;2.75;;;;;;;8.59;100.00;99929.13;6092010;23;20022;-74
2024/03/30 02:12:02;;;;;;;3.63;3.10;;;;;;;8.59;100.00;99931.81;6141639;23;20010;-77
2024/03/30 02:14:29;;;;;;;3.97;2.85;;;;;;;8.61;100.00;99928.88;6117304;23;20468;-76
2024/03/30 02:16:56;;;;;;;4.18;3.28;;;;;;;8.57;100.00;99922.50;6091407;23;20535;-76
2024/03/30 02:19:23;;;;;;;3.47;3.00;;;;;;;8.57;100.00;99933.97;6091291;23;20029;-74
2024/03/30 02:21:49;;;;;;;4.05;2.85;;;;;;;8.56;100.00;99936.91;6117956;23;20022;-77
2024/03/30 02:24:15;;;;;;;3.78;3.00;;;;;;;8.56;100.00;99939.59;6118404;23;20024;-75
2024/03/30 02:26:40;;;;;;;3.63;3.00;;;;;;;8.55;100.00;99933.44;6145006;23;20044;-76
2024/03/30 02:29:10;;;;;;;3.97;2.80;;;;;;;8.54;100.00;99926.53;6117185;23;20009;-76
2024/03/30 02:31:36;;;;;;;3.67;2.88;;;;;;;8.54;100.00;99939.06;6119213;23;20017;-75
2024/03/30 02:34:03;;;;;;;3.83;2.97;;;;;;;8.55;100.00;99929.97;6091716;23;20072;-75
2024/03/30 02:36:30;;;;;;;3.40;2.50;;;;;;;8.55;100.00;99932.66;6119002;23;20017;-74
2024/03/30 02:38:56;;;;;;;4.45;3.28;;;;;;;8.53;100.00;99926.78;6116743;23;20113;-74
2024/03/30 02:41:22;;;;;;;4.15;2.92;;;;;;;8.54;100.00;99923.06;6118246;23;20100;-75
2024/03/30 02:43:48;;;;;;;4.15;3.20;;;;;;;8.54;100.00;99933.72;6144032;23;20033;-74
2024/03/30 02:46:13;;;;;;;3.83;2.50;;;;;;;8.55;100.00;99929.97;6093496;23;20041;-75
2024/03/30 02:48:39;;;;;;;5.43;2.55;;;;;;;8.57;100.00;99936.63;6117921;23;20507;-76
2024/03/30 02:51:05;;;;;;;4.30;2.50;;;;;;;8.56;100.00;99923.56;6119075;23;20013;-75
2024/03/30 02:53:31;;;;;;;5.32;2.85;;;;;;;8.60;100.00;99924.59;6120545;23;20041;-75
2024/03/30 02:55:57;;;;;;;;;;;;;;;8.59;100.00;99926.47;6118954;23;20067;-75
2024/03/30 02:58:23;;;;;;;6.80;2.47;;;;;;;8.61;100.00;99912.88;6096870;23;19959;-76
2024/03/30 03:00:48;;;;;;;3.92;2.67;;;;;;;8.61;100.00;99915.53;6147134;23;20013;-75
2024/03/30 03:03:14;;;;;;;3.15;2.47;;;;;;;8.62;100.00;99919.81;6147560;23;20017;-75
2024/03/30 03:05:39;;;;;;;2.67;2.40;;;;;;;8.62;100.00;99927.81;6121218;23;20044;-76
2024/03/30 03:08:06;;;;;;;;;;;;;;;8.64;100.00;99922.97;6073478;23;20017;-75
2024/03/30 03:10:31;;;;;;;3.70;2.00;;;;;;;8.63;100.00;99921.38;6097360;23;19919;-76
2024/03/30 03:12:57;;;;;;;3.40;2.53;;;;;;;8.63;100.00;99918.72;6119905;23;20006;-76
2024/03/30 03:15:23;;;;;;;3.70;2.40;;;;;;;8.61;100.00;99919.00;6120280;23;20037;-75
2024/03/30 03:17:48;;;;;;;3.55;2.83;;;;;;;8.61;100.00;99907.53;6119181;23;20451;-75
2024/03/30 03:20:14;;;;;;;3.03;2.30;;;;;;;8.61;100.00;99918.22;6120867;23;20044;-74
2024/03/30 03:22:40;;;;;;;3.78;2.22;;;;;;;8.62;100.00;99917.13;6146163;23;20016;-76
2024/03/30 03:25:06;;;;;;;2.95;2.20;;;;;;;8.61;100.00;99916.34;6145804;23;20021;-77
2024/03/30 03:27:32;;;;;;;3.50;2.13;;;;;;;8.61;100.00;99907.53;6145791;23;20016;-77
2024/03/30 03:29:58;;;;;;;4.20;2.90;;;;;;;8.61;100.00;99913.66;6146107;23;20068;-77
2024/03/30 03:32:23;;;;;;;3.00;2.17;;;;;;;8.62;100.00;99915.25;6095662;23;20436;-74
2024/03/30 03:34:49;;;;;;;2.90;2.35;;;;;;;8.62;100.00;99920.59;6093811;23;20971;-76
2024/03/30 03:37:14;;;;;;;2.83;1.92;;;;;;;8.62;100.00;99914.47;6119729;23;20018;-75
2024/03/30 03:39:40;;;;;;;4.68;2.33;;;;;;;8.62;100.00;99911.78;6146375;23;20013;-75
2024/03/30 03:42:06;;;;;;;3.40;2.45;;;;;;;8.63;100.00;99905.38;6119525;23;20097;-75
2024/03/30 03:44:32;;;;;;;3.78;2.30;;;;;;;8.62;100.00;99904.59;6119646;23;20033;-74
2024/03/30 03:46:58;;;;;;;2.72;2.20;;;;;;;8.62;100.00;99893.91;6145611;23;20013;-75
2024/03/30 03:49:24;;;;;;;3.05;2.40;;;;;;;8.63;100.00;99894.69;6070913;23;20018;-74
2024/03/30 03:51:50;;;;;;;2.80;2.50;;;;;;;8.62;100.00;99893.09;6118792;23;20013;-75
2024/03/30 03:54:16;;;;;;;2.88;2.33;;;;;;;8.63;100.00;99889.38;6093669;23;20726;-76
2024/03/30 03:56:42;;;;;;;3.80;1.80;;;;;;;8.63;100.00;99884.81;6121218;23;20013;-74
2024/03/30 03:59:07;;;;;;;3.15;1.83;;;;;;;8.63;100.00;99873.34;6119386;23;20045;-75
2024/03/30 04:01:33;;;;;;;3.30;1.95;;;;;;;8.64;100.00;99880.28;6147112;23;20064;-75
2024/03/30 04:03:58;;;;;;;2.75;2.20;;;;;;;8.64;100.00;99870.41;6119054;23;20377;-75
2024/03/30 04:06:24;;;;;;;2.85;2.05;;;;;;;8.66;100.00;99875.44;6146387;23;20520;-76
2024/03/30 04:08:50;;;;;;;4.13;2.38;;;;;;;8.66;100.00;99878.13;6144740;23;20023;-76
2024/03/30 04:11:16;;;;;;;2.70;2.00;;;;;;;8.66;100.00;99864.78;6120658;23;20045;-76
2024/03/30 04:13:42;;;;;;;4.32;2.55;;;;;;;8.66;100.00;99876.25;6119412;23;20021;-76
2024/03/30 04:16:08;;;;;;;4.20;2.30;;;;;;;8.67;100.00;99863.69;6120083;23;20088;-75
2024/03/30 04:18:33;;;;;;;2.78;2.15;;;;;;;8.68;100.00;99862.66;6119373;23;20017;-76
2024/03/30 04:21:00;;;;;;;3.47;2.50;;;;;;;8.70;100.00;99860.47;6095170;23;20013;-74
2024/03/30 04:23:29;;;;;;;4.70;2.00;;;;;;;8.71;100.00;99854.06;6120111;23;20018;-74
2024/03/30 04:26:05;;;;;;;3.10;2.50;;;;;;;8.72;100.00;99861.00;6119934;23;20062;-73
2024/03/30 04:28:32;;;;;;;2.80;1.80;;;;;;;8.73;100.00;99860.72;6120459;23;20013;-75
2024/03/30 04:30:58;;;;;;;3.30;2.70;;;;;;;8.74;100.00;99864.19;6120079;23;20020;-74
2024/03/30 04:33:24;;;;;;;3.10;2.30;;;;;;;8.75;100.00;99855.13;6094670;23;20013;-74
2024/03/30 04:35:57;;;;;;;3.35;1.95;;;;;;;8.75;100.00;99865.78;6119467;23;20105;-74
2024/03/30 04:38:24;;;;;;;3.55;2.17;;;;;;;8.75;100.00;99855.13;6119159;23;20515;-74
2024/03/30 04:41:06;;;;;;;3.50;2.55;;;;;;;8.75;100.00;99861.25;6119350;23;20029;-74
2024/03/30 04:43:34;;;;;;;2.45;2.20;;;;;;;8.75;100.00;99855.91;6146643;23;20018;-75
2024/03/30 04:46:00;;;;;;;2.90;2.22;;;;;;;8.74;100.00;99851.66;6120084;23;20013;-74
2024/03/30 04:48:28;;;;;;;3.38;1.85;;;;;;;8.74;100.00;99853.53;6121559;23;20423;-74
2024/03/30 04:50:55;;;;;;;3.15;2.50;;;;;;;8.74;100.00;99854.31;6145727;23;20586;-75
2024/03/30 04:53:27;;;;;;;4.75;2.70;;;;;;;8.74;100.00;99862.31;6145812;23;20021;-75
2024/03/30 04:55:56;;;;;;;;;;;;;;;8.76;100.00;99862.03;6120468;23;20367;-75
2024/03/30 04:58:27;;;;;;;4.30;2.53;;;;;;;8.75;100.00;99855.13;6119321;23;20027;-73
2024/03/30 05:00:54;;;;;;;5.95;2.78;;;;;;;8.74;100.00;99846.31;6094881;23;20017;-74
2024/03/30 05:03:20;;;;;;;3.03;2.35;;;;;;;8.75;100.00;99845.22;6095094;23;20625;-74
2024/03/30 05:05:47;;;;;;;2.95;2.20;;;;;;;8.74;100.00;99843.66;6120153;23;20760;-75
2024/03/30 05:08:14;;;;;;;3.47;2.63;;;;;;;8.74;100.00;99848.97;6144704;23;20009;-75
2024/03/30 05:10:40;;;;;;;5.18;2.80;;;;;;;8.74;100.00;99840.19;6146106;23;20104;-75
2024/03/30 05:13:06;;;;;;;3.50;2.78;;;;;;;8.74;100.00;99848.19;6094184;23;20011;-74
2024/03/30 05:15:36;;;;;;;3.88;2.33;;;;;;;8.70;100.00;99837.25;6095340;23;20020;-75
2024/03/30 05:18:03;;;;;;;5.22;2.47;;;;;;;8.69;100.00;99832.19;6118248;23;20407;-74
2024/03/30 05:23:13;;;;;;;3.47;2.28;;;;;;;8.69;100.00;99850.88;6144677;23;20009;-77
2024/03/30 05:25:40;;;;;;;3.10;2.50;;;;;;;8.68;100.00;99849.28;6146122;23;20089;-75
2024/03/30 05:28:06;;;;;;;3.20;2.40;;;;;;;8.68;100.00;99846.63;6119011;23;20032;-74
2024/03/30 05:30:32;;;;;;;4.32;2.50;;;;;;;8.69;100.00;99845.53;6145146;23;20084;-73
2024/03/30 05:32:57;;;;;;;3.35;2.28;;;;;;;8.70;100.00;99852.47;6118412;23;20234;-74
2024/03/30 05:35:23;;;;;;;3.17;2.10;;;;;;;8.71;100.00;99848.72;6146321;23;20017;-74
2024/03/30 05:37:49;;;;;;;3.05;2.40;;;;;;;8.72;100.00;99844.97;6119034;23;20021;-76
2024/03/30 05:40:14;;;;;;;2.97;2.20;;;;;;;8.72;100.00;99851.09;6071180;23;20072;-76
2024/03/30 05:42:40;;;;;;;3.80;2.10;;;;;;;8.72;100.00;99845.78;6119952;23;20013;-75
2024/03/30 05:45:06;;;;;;;3.42;2.95;;;;;;;8.71;100.00;99835.38;6141397;23;20010;-76
2024/03/30 05:47:31;;;;;;;2.63;2.25;;;;;;;8.73;100.00;99843.91;6094043;23;20020;-77
2024/03/30 05:49:57;;;;;;;3.92;2.60;;;;;;;8.73;100.00;99849.22;6118944;23;20051;-77
2024/03/30 05:52:23;;;;;;;3.42;2.70;;;;;;;8.74;100.00;99842.84;6144761;23;20013;-74
2024/03/30 05:54:48;;;;;;;4.60;2.63;;;;;;;8.75;100.00;99841.78;6145026;23;20024;-76
2024/03/30 05:57:14;;;;;;;5.30;2.40;;;;;;;8.77;100.00;99842.28;6144279;23;20064;-77
2024/03/30 05:59:40;;;;;;;3.70;2.30;;;;;;;8.79;100.00;99839.31;6145356;23;20013;-78
2024/03/30 06:02:06;;;;;;;4.72;2.58;;;;;;;8.81;100.00;99843.31;6143382;23;20227;-76
2024/03/30 06:04:31;;;;;;;3.75;1.92;;;;;;;8.82;100.00;99839.56;6146633;23;20017;-76
2024/03/30 06:06:57;;;;;;;3.00;2.10;;;;;;;8.84;100.00;99826.72;6144627;23;20022;-78
2024/03/30 06:09:24;;;;;;;4.15;2.50;;;;;;;8.87;100.00;99836.84;6145300;23;20017;-77
2024/03/30 06:11:50;;;;;;;3.60;2.40;;;;;;;8.90;100.00;99824.81;6145163;23;20014;-79
2024/03/30 06:14:16;;;;;;;3.20;2.17;;;;;;;8.92;100.00;99818.13;6144704;23;20102;-76
2024/03/30 06:16:47;;;;;;;4.97;2.20;;;;;;;8.94;100.00;99829.31;6144324;23;20013;-76
2024/03/30 06:19:13;;;;;;;3.78;2.38;;;;;;;8.97;100.00;99831.44;6145564;23;20017;-77
2024/03/30 06:21:38;;;;;;;3.60;2.03;;;;;;;9.00;100.00;99836.19;6120105;23;20021;-75
2024/03/30 06:24:04;;;;;;;3.45;2.40;;;;;;;9.02;100.00;99834.06;6142993;23;20009;-75
2024/03/30 06:26:30;;;;;;;2.88;1.90;;;;;;;9.06;100.00;99830.81;6143951;23;20045;-76
2024/03/30 06:28:56;;;;;;;2.85;2.38;;;;;;;9.07;100.00;99841.22;6143096;23;20351;-78
2024/03/30 06:31:21;;;;;;;3.97;2.45;;;;;;;9.12;100.00;99830.47;6144198;23;20010;-78
2024/03/30 06:33:48;;;;;;;3.58;2.30;;;;;;;9.14;100.00;99844.34;6143647;23;20024;-79
2024/03/30 06:36:13;;;;;;;4.05;2.53;;;;;;;9.18;100.00;99833.91;6145409;23;20013;-78
2024/03/30 06:38:39;;;;;;;3.58;2.40;;;;;;;9.19;100.00;99832.81;6143774;23;20021;-79
2024/03/30 06:43:49;;;;;;;3.45;2.42;;;;;;;9.27;100.00;99829.53;6119558;23;20076;-77
2024/03/30 06:46:15;;;;;;;3.88;1.83;;;;;;;9.32;100.00;99832.16;6144396;23;20248;-77
2024/03/30 06:48:41;;;;;;;4.85;2.10;;;;;;;9.39;100.00;99832.63;6146742;23;20036;-77
2024/03/30 06:51:06;;;;;;;3.67;2.60;;;;;;;9.42;100.00;99840.09;6120207;23;20096;-78
2024/03/30 06:53:33;;;;;;;2.60;1.95;;;;;;;9.46;100.00;99832.28;6146147;23;20115;-80
2024/03/30 06:55:59;;;;;;;3.47;2.10;;;;;;;9.51;100.00;99832.22;6119395;23;20463;-78
2024/03/30 06:58:25;;;;;;;3.33;2.00;;;;;;;9.54;100.00;99826.31;6119987;23;20037;-78
2024/03/30 07:00:50;;;;;;;3.08;2.15;;;;;;;9.57;100.00;99834.56;6119695;23;20056;-78
2024/03/30 07:03:17;;;;;;;4.03;2.13;;;;;;;9.63;100.00;99837.19;6119726;23;20632;-78
2024/03/30 07:05:42;;;;;;;4.35;2.08;;;;;;;9.70;100.00;99830.41;6095544;23;20369;-79
2024/03/30 07:08:08;;;;;;;3.08;2.28;;;;;;;9.79;100.00;99825.22;6143443;23;20105;-76
2024/03/30 07:10:34;;;;;;;2.72;1.85;;;;;;;9.85;100.00;99824.06;6120759;23;20079;-77
2024/03/30 07:13:00;;;;;;;2.95;2.15;;;;;;;9.95;100.00;99829.28;6144043;23;20016;-76
2024/03/30 07:15:25;;;;;;;2.70;2.30;;;;;;;10.03;100.00;99830.53;6120289;23;20022;-77
2024/03/30 07:17:53;;;;;;;5.07;2.30;;;;;;;10.11;100.00;99822.66;6120343;23;20028;-78
2024/03/30 07:20:19;;;;;;;3.17;2.25;;;;;;;10.17;100.00;99826.06;6145083;23;20052;-76
2024/03/30 07:22:44;;;;;;;2.67;2.05;;;;;;;10.25;100.00;99832.69;6096511;23;20018;-76
2024/03/30 07:25:11;;;;;;;4.47;2.60;;;;;;;10.29;100.00;99825.66;6145320;23;20020;-76
2024/03/30 07:27:37;;;;;;;4.20;2.47;;;;;;;10.32;100.00;99822.41;6145397;23;20017;-78
2024/03/30 07:30:03;;;;;;;3.67;2.72;;;;;;;10.44;100.00;99825.44;6145566;23;20067;-78
2024/03/30 07:32:28;;;;;;;4.22;2.75;;;;;;;10.50;100.00;99821.59;6145709;23;20014;-78
2024/03/30 07:34:54;;;;;;;3.88;2.80;;;;;;;10.59;100.00;99819.84;6145718;23;20010;-77
2024/03/30 07:37:20;;;;;;;3.72;2.65;;;;;;;10.68;100.00;99819.19;6144499;23;20021;-75
2024/03/30 07:39:46;;;;;;;3.22;2.40;;;;;;;10.72;100.00;99809.50;6145300;23;20084;-77
2024/03/30 07:42:11;;;;;;;3.40;2.92;;;;;;;10.82;100.00;99820.03;6144752;23;20045;-76
2024/03/30 07:44:38;;;;;;;3.05;2.50;;;;;;;10.88;100.00;99813.50;6147139;23;20022;-75
2024/03/30 07:47:05;;;;;;;4.78;2.45;;;;;;;10.93;100.00;99800.03;6143500;23;20403;-76
2024/03/30 07:49:32;;;;;;;4.00;2.50;;;;;;;11.05;100.00;99805.69;6144243;23;20951;-73
2024/03/30 07:51:58;;;;;;;3.55;2.58;;;;;;;11.14;100.00;99784.38;6120982;23;20020;-76
2024/03/30 07:54:23;;;;;;;3.95;2.90;;;;;;;11.20;100.00;99783.97;6120579;23;20013;-76
2024/03/30 07:57:00;;;;;;;3.80;2.80;;;;;;;11.31;100.00;99787.28;6145453;23;20356;-78
2024/03/30 07:59:28;;;;;;;3.05;2.10;;;;;;;11.38;100.00;99779.63;6146956;23;20486;-79
2024/03/30 08:01:54;;;;;;;3.90;2.40;;;;;;;11.51;100.00;99778.00;6121659;23;20009;-78
2024/03/30 08:04:21;;;;;;;3.45;2.50;;;;;;;11.62;100.00;99783.97;6146840;23;20016;-78
2024/03/30 08:06:48;;;;;;;3.10;2.17;;;;;;;11.67;100.00;99778.53;6121147;23;20160;-78
2024/03/30 08:09:18;;;;;;;2.42;2.00;;;;;;;11.76;100.00;99771.34;6144038;23;20563;-77
2024/03/30 08:11:44;;;;;;;2.97;1.77;;;;;;;11.85;100.00;99771.44;6145650;23;20017;-77
2024/03/30 08:14:11;;;;;;;2.80;2.13;;;;;;;11.94;100.00;99773.13;6145078;23;20017;-79
2024/03/30 08:16:37;;;;;;;4.45;1.70;;;;;;;11.96;100.00;99778.97;6144856;23;20087;-78
2024/03/30 08:19:08;;;;;;;4.15;2.20;;;;;;;12.05;100.00;99775.56;6146296;23;20013;-73
2024/03/30 08:21:34;;;;;;;5.18;2.35;;;;;;;12.17;100.00;99768.59;6145822;23;20040;-77
2024/03/30 08:24:00;;;;;;;4.50;2.75;;;;;;;12.24;100.00;99768.94;6145943;23;20432;-78
2024/03/30 08:26:26;;;;;;;4.45;2.50;;;;;;;12.31;100.00;99771.22;6143739;23;20329;-74
2024/03/30 08:28:52;;;;;;;3.50;2.30;;;;;;;12.37;100.00;99771.91;6119292;23;20389;-80
2024/03/30 08:31:18;;;;;;;3.38;2.38;;;;;;;12.49;100.00;99769.47;6143956;23;20033;-76
2024/03/30 08:33:43;;;;;;;4.25;2.90;;;;;;;12.57;100.00;99760.66;6119281;23;20021;-77
2024/03/30 08:36:09;;;;;;;4.35;2.83;;;;;;;12.61;100.00;99758.97;6144411;23;20705;-77
2024/03/30 08:38:35;;;;;;;3.47;2.25;;;;;;;12.66;100.00;99758.03;6146884;23;20090;-76
2024/03/30 08:41:01;;;;;;;4.60;2.28;;;;;;;12.79;100.00;99752.56;6145961;23;20067;-75
2024/03/30 08:43:26;;;;;;;2.70;2.00;;;;;;;12.91;100.00;99759.28;6120152;23;20027;-75
2024/03/30 08:45:53;;;;;;;4.30;2.22;;;;;;;12.85;100.00;99762.09;6147222;23;20096;-77
2024/03/30 08:48:20;;;;;;;3.05;2.33;;;;;;;12.89;100.00;99758.81;6144380;23;20017;-78
2024/03/30 08:50:47;;;;;;;3.20;1.80;;;;;;;12.93;100.00;99768.59;6145132;23;20466;-75
2024/03/30 08:53:13;;;;;;;3.10;2.20;;;;;;;13.00;100.00;99757.41;6144191;23;20434;-75
2024/03/30 08:55:39;;;;;;;2.88;2.08;;;;;;;12.97;100.00;99750.78;6145589;23;20028;-75
2024/03/30 08:58:07;;;;;;;3.25;2.20;;;;;;;12.94;100.00;99766.72;6146146;23;20040;-73
2024/03/30 09:00:36;;;;;;;2.88;1.80;;;;;;;12.87;100.00;99755.59;6146596;23;20018;-78
2024/03/30 09:03:03;;;;;;;4.25;2.33;;;;;;;12.84;100.00;99752.44;6119044;23;20020;-75
2024/03/30 09:05:29;;;;;;;3.60;2.60;;;;;;;12.81;100.00;99745.00;6144326;23;20096;-78
2024/03/30 09:07:56;;;;;;;2.75;2.15;;;;;;;12.75;100.00;99743.56;6145269;23;20111;-78
2024/03/30 09:10:25;;;;;;;3.53;2.58;;;;;;;12.87;100.00;99748.38;6144408;23;20597;-79
2024/03/30 09:12:51;;;;;;;3.53;2.47;;;;;;;12.94;100.00;99739.84;6146316;23;20014;-76
2024/03/30 09:15:19;;;;;;;3.30;2.58;;;;;;;12.95;100.00;99752.19;6145766;23;20084;-76
2024/03/30 09:17:45;;;;;;;3.28;2.22;;;;;;;12.99;100.00;99737.03;6144073;23;20023;-76
2024/03/30 09:20:11;;;;;;;3.20;2.70;;;;;;;12.98;100.00;99743.50;6094023;23;20076;-77
2024/03/30 09:22:38;;;;;;;3.45;2.05;;;;;;;13.10;100.00;99735.66;6144806;23;20404;-77
2024/03/30 09:25:12;;;;;;;3.90;2.55;;;;;;;13.11;100.00;99739.91;6145858;23;20013;-76
2024/03/30 09:27:39;;;;;;;4.65;2.45;;;;;;;13.10;100.00;99727.59;6144721;23;20444;-74
2024/03/30 09:30:10;;;;;;;2.60;2.03;;;;;;;13.04;100.00;99728.81;6144438;23;20032;-77
2024/03/30 09:32:36;;;;;;;3.22;2.17;;;;;;;13.13;100.00;99724.28;6146326;23;20009;-77
2024/03/30 09:35:02;;;;;;;4.55;2.03;;;;;;;13.20;100.00;99735.38;6119717;23;20024;-79
2024/03/30 09:37:28;;;;;;;3.40;2.10;;;;;;;13.25;100.00;99737.94;6144218;23;20021;-79
2024/03/30 09:39:54;;;;;;;4.05;2.50;;;;;;;13.42;100.00;99747.97;6144493;23;20021;-78
2024/03/30 09:42:29;;;;;;;3.70;2.85;;;;;;;13.50;100.00;99739.13;6143885;23;20805;-76
2024/03/30 09:44:55;;;;;;;3.10;2.25;;;;;;;13.49;100.00;99734.06;6144973;23;20080;-76
2024/03/30 09:47:23;;;;;;;3.10;2.50;;;;;;;13.55;100.00;99735.50;6143403;23;20700;-78
2024/03/30 09:49:51;;;;;;;2.78;2.00;;;;;;;13.58;100.00;99732.97;6141860;23;20618;-78
2024/03/30 09:52:20;;;;;;;3.80;3.00;;;;;;;13.57;100.00;99723.31;6117206;23;20024;-78
2024/03/30 09:54:49;;;;;;;4.00;2.20;;;;;;;13.56;100.00;99721.75;6142907;23;20021;-77
2024/03/30 09:57:19;;;;;;;4.05;2.75;;;;;;;13.65;100.00;99730.59;6143453;23;20351;-75
2024/03/30 09:59:47;;;;;;;3.15;2.60;;;;;;;13.80;100.00;99732.06;6145019;23;20009;-78
2024/03/30 10:02:12;;;;;;;3.97;2.45;;;;;;;13.99;100.00;99733.66;6142963;23;20013;-78
2024/03/30 10:04:38;;;;;;;3.58;2.22;;;;;;;14.17;100.00;99724.47;6144034;23;20072;-74
2024/03/30 10:07:13;;;;;;;4.22;2.45;;;;;;;14.36;100.00;99721.41;6143322;23;20357;-78
2024/03/30 10:09:40;;;;;;;3.00;2.00;;;;;;;14.50;100.00;99718.59;6143362;23;20798;-76
2024/03/30 10:12:36;;;;;;;3.00;2.67;;;;;;;14.68;100.00;99722.81;6144584;23;20037;-77
2024/03/30 10:15:05;;;;;;;3.22;2.03;;;;;;;14.81;100.00;99711.06;6079837;23;20017;-76
2024/03/30 10:17:31;;;;;;;6.07;2.40;;;;;;;14.95;100.00;99714.31;6117129;23;20017;-77
2024/03/30 10:19:58;;;;;;;;;;;;;;;15.04;100.00;99714.31;6142477;23;20009;-78
2024/03/30 10:22:24;;;;;;;5.82;2.60;;;;;;;15.13;100.00;99712.34;6142480;23;19916;-78
2024/03/30 10:24:51;;;;;;;3.85;2.50;;;;;;;15.21;100.00;99713.41;6142025;23;20495;-76
2024/03/30 10:27:17;;;;;;;3.60;2.63;;;;;;;15.25;100.00;99708.97;6118747;23;20088;-75
2024/03/30 10:29:43;;;;;;;3.13;2.22;;;;;;;15.28;100.00;99711.00;6120507;23;20017;-74
2024/03/30 10:32:09;;;;;;;3.15;2.22;;;;;;;15.40;100.00;99711.09;6144619;23;20014;-78
2024/03/30 10:34:36;;;;;;;3.80;1.88;;;;;;;15.52;100.00;99697.69;6144768;23;20372;-78
2024/03/30 10:37:01;;;;;;;5.93;2.38;;;;;;;15.67;100.00;99709.06;6144539;23;20029;-76
2024/03/30 10:39:27;;;;;;;;;;;;;;;15.75;100.00;99705.50;6120091;23;20024;-77
2024/03/30 10:41:54;;;;;;;3.10;1.60;;;;;;;15.92;100.00;99713.47;6145770;23;20293;-78
2024/03/30 10:44:29;;;;;;;4.20;1.90;;;;;;;16.11;100.00;99707.59;6118516;23;20137;-76
2024/03/30 10:46:56;;;;;;;4.05;1.60;;;;;;;16.27;100.00;99705.06;6146415;23;20017;-79
2024/03/30 10:49:25;;;;;;;3.42;1.60;;;;;;;16.42;100.00;99709.84;6145003;23;20024;-78
2024/03/30 10:51:52;;;;;;;3.58;1.30;;;;;;;16.49;100.00;99706.59;6146666;23;20342;-78
2024/03/30 10:54:20;;;;;;;4.63;1.80;;;;;;;16.60;100.00;99716.66;6145505;23;20096;-77
2024/03/30 10:56:50;;;;;;;4.70;1.50;;;;;;;16.70;100.00;99723.56;6147134;23;20481;-78
2024/03/30 10:59:17;;;;;;;5.63;1.50;;;;;;;16.74;100.00;99723.69;6145791;23;20017;-77
2024/03/30 11:01:54;;;;;;;3.53;1.50;;;;;;;16.74;100.00;99710.97;6148500;23;20340;-79
2024/03/30 11:04:20;;;;;;;6.65;2.50;;;;;;;16.82;100.00;99730.91;6116417;23;20028;-78
2024/03/30 11:06:47;;;;;;;;;;;;;;;16.85;100.00;99727.53;6147777;23;20423;-77
2024/03/30 11:09:15;;;;;;;4.90;1.63;;;;;;;16.94;100.00;99722.84;6144774;23;20506;-76
2024/03/30 11:11:42;;;;;;;5.28;1.35;;;;;;;17.08;100.00;99728.69;6171528;23;20009;-78
2024/03/30 11:14:08;;;;;;;4.65;1.92;;;;;;;17.16;100.00;99730.50;6120953;23;20021;-79
2024/03/30 11:16:41;;;;;;;5.00;1.63;;;;;;;17.23;100.00;99734.56;6147791;23;20063;-78
2024/03/30 11:19:18;;;;;;;5.43;2.30;;;;;;;17.27;100.00;99733.53;6146481;23;20463;-78
2024/03/30 11:22:04;;;;;;;9.45;1.90;;;;;;;17.32;100.00;99736.00;6146828;23;20020;-79
2024/03/30 11:24:36;;;;;;;7.18;1.77;;;;;;;17.42;100.00;99732.09;6147606;23;20084;-80
2024/03/30 11:27:08;;;;;;;7.07;1.58;;;;;;;17.54;100.00;99731.25;6146505;23;20013;-77
2024/03/30 11:29:41;;;;;;;;;;;;;;;17.53;100.00;99738.59;6121669;23;20024;-79
2024/03/30 11:32:12;;;;;;;6.47;1.63;;;;;;;17.63;100.00;99740.06;6145499;23;19912;-77
2024/03/30 11:35:06;;;;;;;5.68;1.52;;;;;;;17.67;100.00;99733.59;6170485;23;20025;-76